sensor_id;sensor_type;location;lat;lon;timestamp;temperature;humidity
6174;DHT22;3120;48.796;9.796;2022-11-03T00:03:58;4.90;99.90
6174;DHT22;3120;48.796;9.796;2022-11-03T00:06:24;4.70;99.90
6174;DHT22;3120;48.796;9.796;2022-11-03T00:08:49;4.80;99.90
6174;DHT22;3120;48.796;9.796;2022-11-03T00:11:15;4.70;99.90
6174;DHT22;3120;48.796;9.796;2022-11-03T00:13:42;4.70;99.90
6174;DHT22;3120;48.796;9.796;2022-11-03T00:16:11;5.70;99.90
6174;DHT22;3120;48.796;9.796;2022-11-03T00:18:37;4.70;99.90
6174;DHT22;3120;48.796;9.796;2022-11-03T00:21:06;4.70;99.90
6174;DHT22;3120;48.796;9.796;2022-11-03T00:23:35;4.70;99.90
6174;DHT22;3120;48.796;9.796;2022-11-03T00:28:39;4.70;99.90
6174;DHT22;3120;48.796;9.796;2022-11-03T00:31:11;4.70;99.90
6174;DHT22;3120;48.796;9.796;2022-11-03T00:33:37;4.60;99.90
6174;DHT22;3120;48.796;9.796;2022-11-03T00:36:04;4.60;99.90
6174;DHT22;3120;48.796;9.796;2022-11-03T00:38:30;4.60;99.90
6174;DHT22;3120;48.796;9.796;2022-11-03T00:40:57;4.60;99.90
6174;DHT22;3120;48.796;9.796;2022-11-03T00:43:24;4.60;99.90
6174;DHT22;3120;48.796;9.796;2022-11-03T00:45:50;4.60;99.90
6174;DHT22;3120;48.796;9.796;2022-11-03T00:48:16;4.60;99.90
6174;DHT22;3120;48.796;9.796;2022-11-03T00:51:00;4.50;99.90
6174;DHT22;3120;48.796;9.796;2022-11-03T00:53:27;4.50;99.90
6174;DHT22;3120;48.796;9.796;2022-11-03T00:55:53;4.50;99.90
6174;DHT22;3120;48.796;9.796;2022-11-03T00:58:18;4.50;99.90
6174;DHT22;3120;48.796;9.796;2022-11-03T01:00:44;4.50;99.90
6174;DHT22;3120;48.796;9.796;2022-11-03T01:03:09;4.80;99.90
6174;DHT22;3120;48.796;9.796;2022-11-03T01:05:42;4.50;99.90
6174;DHT22;3120;48.796;9.796;2022-11-03T01:08:34;4.50;99.90
6174;DHT22;3120;48.796;9.796;2022-11-03T01:11:11;4.40;99.90
6174;DHT22;3120;48.796;9.796;2022-11-03T01:13:56;4.40;99.90
6174;DHT22;3120;48.796;9.796;2022-11-03T01:16:22;4.40;99.90
6174;DHT22;3120;48.796;9.796;2022-11-03T01:18:48;4.40;99.90
6174;DHT22;3120;48.796;9.796;2022-11-03T01:21:14;4.40;99.90
6174;DHT22;3120;48.796;9.796;2022-11-03T01:23:39;4.40;99.90
6174;DHT22;3120;48.796;9.796;2022-11-03T01:26:07;4.40;99.90
6174;DHT22;3120;48.796;9.796;2022-11-03T01:28:34;4.30;99.90
6174;DHT22;3120;48.796;9.796;2022-11-03T01:31:09;4.30;99.90
6174;DHT22;3120;48.796;9.796;2022-11-03T01:33:34;6.50;99.90
6174;DHT22;3120;48.796;9.796;2022-11-03T01:36:00;4.10;99.90
6174;DHT22;3120;48.796;9.796;2022-11-03T01:38:26;4.10;99.90
6174;DHT22;3120;48.796;9.796;2022-11-03T01:40:51;4.00;99.90
6174;DHT22;3120;48.796;9.796;2022-11-03T01:43:22;5.60;99.90
6174;DHT22;3120;48.796;9.796;2022-11-03T01:46:07;4.10;99.90
6174;DHT22;3120;48.796;9.796;2022-11-03T01:48:44;4.10;99.90
6174;DHT22;3120;48.796;9.796;2022-11-03T01:51:13;4.10;99.90
6174;DHT22;3120;48.796;9.796;2022-11-03T01:53:43;5.90;99.90
6174;DHT22;3120;48.796;9.796;2022-11-03T01:56:11;4.10;99.90
6174;DHT22;3120;48.796;9.796;2022-11-03T01:58:39;4.10;99.90
6174;DHT22;3120;48.796;9.796;2022-11-03T02:01:05;4.00;99.90
6174;DHT22;3120;48.796;9.796;2022-11-03T02:03:35;4.10;99.90
6174;DHT22;3120;48.796;9.796;2022-11-03T02:06:03;4.20;99.90
6174;DHT22;3120;48.796;9.796;2022-11-03T02:09:07;4.10;99.90
6174;DHT22;3120;48.796;9.796;2022-11-03T02:11:34;4.10;99.90
6174;DHT22;3120;48.796;9.796;2022-11-03T02:14:19;4.00;99.90
6174;DHT22;3120;48.796;9.796;2022-11-03T02:16:48;4.10;99.90
6174;DHT22;3120;48.796;9.796;2022-11-03T02:20:04;4.10;99.90
6174;DHT22;3120;48.796;9.796;2022-11-03T02:28:03;4.00;99.90
6174;DHT22;3120;48.796;9.796;2022-11-03T02:33:37;3.90;99.90
6174;DHT22;3120;48.796;9.796;2022-11-03T02:36:19;3.90;99.90
6174;DHT22;3120;48.796;9.796;2022-11-03T02:41:36;3.90;99.90
6174;DHT22;3120;48.796;9.796;2022-11-03T02:44:05;3.80;99.90
6174;DHT22;3120;48.796;9.796;2022-11-03T02:46:33;3.90;99.90
6174;DHT22;3120;48.796;9.796;2022-11-03T02:48:59;3.80;99.90
6174;DHT22;3120;48.796;9.796;2022-11-03T02:51:25;3.80;99.90
6174;DHT22;3120;48.796;9.796;2022-11-03T02:54:17;3.80;99.90
6174;DHT22;3120;48.796;9.796;2022-11-03T02:56:49;3.80;99.90
6174;DHT22;3120;48.796;9.796;2022-11-03T02:59:39;3.80;99.90
6174;DHT22;3120;48.796;9.796;2022-11-03T03:02:10;3.80;99.90
6174;DHT22;3120;48.796;9.796;2022-11-03T03:04:39;3.80;99.90
6174;DHT22;3120;48.796;9.796;2022-11-03T03:07:09;3.80;99.90
6174;DHT22;3120;48.796;9.796;2022-11-03T03:09:40;3.80;99.90
6174;DHT22;3120;48.796;9.796;2022-11-03T03:12:09;3.90;99.90
6174;DHT22;3120;48.796;9.796;2022-11-03T03:14:38;3.90;99.90
6174;DHT22;3120;48.796;9.796;2022-11-03T03:17:29;3.90;99.90
6174;DHT22;3120;48.796;9.796;2022-11-03T03:22:55;3.90;99.90
6174;DHT22;3120;48.796;9.796;2022-11-03T03:25:30;4.00;99.90
6174;DHT22;3120;48.796;9.796;2022-11-03T03:28:07;4.00;99.90
6174;DHT22;3120;48.796;9.796;2022-11-03T03:30:35;4.00;99.90
6174;DHT22;3120;48.796;9.796;2022-11-03T03:33:03;4.00;99.90
6174;DHT22;3120;48.796;9.796;2022-11-03T03:35:31;4.00;99.90
6174;DHT22;3120;48.796;9.796;2022-11-03T03:38:01;4.10;99.90
6174;DHT22;3120;48.796;9.796;2022-11-03T03:40:32;4.10;99.90
6174;DHT22;3120;48.796;9.796;2022-11-03T03:43:00;4.90;99.90
6174;DHT22;3120;48.796;9.796;2022-11-03T03:45:28;4.20;99.90
6174;DHT22;3120;48.796;9.796;2022-11-03T03:47:54;4.20;99.90
6174;DHT22;3120;48.796;9.796;2022-11-03T03:50:20;4.20;99.90
6174;DHT22;3120;48.796;9.796;2022-11-03T03:52:47;4.20;99.90
6174;DHT22;3120;48.796;9.796;2022-11-03T03:55:17;4.20;99.90
6174;DHT22;3120;48.796;9.796;2022-11-03T03:57:45;4.20;99.90
6174;DHT22;3120;48.796;9.796;2022-11-03T04:00:14;4.20;99.90
6174;DHT22;3120;48.796;9.796;2022-11-03T04:02:40;4.10;99.90
6174;DHT22;3120;48.796;9.796;2022-11-03T04:05:06;4.10;99.90
6174;DHT22;3120;48.796;9.796;2022-11-03T04:07:32;4.20;99.90
6174;DHT22;3120;48.796;9.796;2022-11-03T04:10:13;4.20;99.90
6174;DHT22;3120;48.796;9.796;2022-11-03T04:12:40;4.20;99.90
6174;DHT22;3120;48.796;9.796;2022-11-03T04:15:25;4.30;99.90
6174;DHT22;3120;48.796;9.796;2022-11-03T04:18:09;4.20;99.90
6174;DHT22;3120;48.796;9.796;2022-11-03T04:20:53;4.20;99.90
6174;DHT22;3120;48.796;9.796;2022-11-03T04:23:37;4.20;99.90
6174;DHT22;3120;48.796;9.796;2022-11-03T04:26:03;4.20;99.90
6174;DHT22;3120;48.796;9.796;2022-11-03T04:33:34;4.20;99.90
6174;DHT22;3120;48.796;9.796;2022-11-03T04:36:00;4.20;99.90
6174;DHT22;3120;48.796;9.796;2022-11-03T04:38:26;4.20;99.90
6174;DHT22;3120;48.796;9.796;2022-11-03T04:40:54;4.20;99.90
6174;DHT22;3120;48.796;9.796;2022-11-03T04:47:07;4.20;99.90
6174;DHT22;3120;48.796;9.796;2022-11-03T04:49:34;4.10;99.90
6174;DHT22;3120;48.796;9.796;2022-11-03T04:51:59;4.20;99.90
6174;DHT22;3120;48.796;9.796;2022-11-03T04:54:25;4.20;99.90
6174;DHT22;3120;48.796;9.796;2022-11-03T04:56:51;4.30;99.90
6174;DHT22;3120;48.796;9.796;2022-11-03T04:59:17;4.30;99.90
6174;DHT22;3120;48.796;9.796;2022-11-03T05:01:43;4.50;99.90
6174;DHT22;3120;48.796;9.796;2022-11-03T05:04:14;4.40;99.90
6174;DHT22;3120;48.796;9.796;2022-11-03T05:06:48;4.30;99.90
6174;DHT22;3120;48.796;9.796;2022-11-03T05:09:18;4.30;99.90
6174;DHT22;3120;48.796;9.796;2022-11-03T05:11:45;4.30;99.90
6174;DHT22;3120;48.796;9.796;2022-11-03T05:14:15;4.30;99.90
6174;DHT22;3120;48.796;9.796;2022-11-03T05:16:41;4.30;99.90
6174;DHT22;3120;48.796;9.796;2022-11-03T05:19:14;4.40;99.90
6174;DHT22;3120;48.796;9.796;2022-11-03T05:21:41;4.50;99.90
6174;DHT22;3120;48.796;9.796;2022-11-03T05:24:10;4.40;99.90
6174;DHT22;3120;48.796;9.796;2022-11-03T05:26:37;4.40;99.90
6174;DHT22;3120;48.796;9.796;2022-11-03T05:31:50;4.50;99.90
6174;DHT22;3120;48.796;9.796;2022-11-03T05:34:30;4.50;99.90
6174;DHT22;3120;48.796;9.796;2022-11-03T05:37:31;4.60;99.90
6174;DHT22;3120;48.796;9.796;2022-11-03T05:42:43;4.40;99.90
6174;DHT22;3120;48.796;9.796;2022-11-03T05:45:21;4.40;99.90
6174;DHT22;3120;48.796;9.796;2022-11-03T05:47:48;4.40;99.90
6174;DHT22;3120;48.796;9.796;2022-11-03T05:50:22;4.30;99.90
6174;DHT22;3120;48.796;9.796;2022-11-03T05:52:57;4.30;99.90
6174;DHT22;3120;48.796;9.796;2022-11-03T05:55:30;4.30;99.90
6174;DHT22;3120;48.796;9.796;2022-11-03T05:58:04;4.30;99.90
6174;DHT22;3120;48.796;9.796;2022-11-03T06:00:39;4.20;99.90
6174;DHT22;3120;48.796;9.796;2022-11-03T06:03:06;4.20;99.90
6174;DHT22;3120;48.796;9.796;2022-11-03T06:05:32;4.20;99.90
6174;DHT22;3120;48.796;9.796;2022-11-03T06:08:39;4.20;99.90
6174;DHT22;3120;48.796;9.796;2022-11-03T06:11:04;4.20;99.90
6174;DHT22;3120;48.796;9.796;2022-11-03T06:13:36;4.20;99.90
6174;DHT22;3120;48.796;9.796;2022-11-03T06:18:40;4.20;99.90
6174;DHT22;3120;48.796;9.796;2022-11-03T06:21:17;4.30;99.90
6174;DHT22;3120;48.796;9.796;2022-11-03T06:23:43;4.20;99.90
6174;DHT22;3120;48.796;9.796;2022-11-03T06:26:21;4.50;99.90
6174;DHT22;3120;48.796;9.796;2022-11-03T06:28:53;4.20;99.90
6174;DHT22;3120;48.796;9.796;2022-11-03T06:31:34;4.30;99.90
6174;DHT22;3120;48.796;9.796;2022-11-03T06:34:00;4.30;99.90
6174;DHT22;3120;48.796;9.796;2022-11-03T06:36:35;4.30;99.90
6174;DHT22;3120;48.796;9.796;2022-11-03T06:39:08;4.40;99.90
6174;DHT22;3120;48.796;9.796;2022-11-03T06:41:36;4.50;99.90
6174;DHT22;3120;48.796;9.796;2022-11-03T06:44:22;5.40;99.90
6174;DHT22;3120;48.796;9.796;2022-11-03T06:46:49;4.60;99.90
6174;DHT22;3120;48.796;9.796;2022-11-03T06:49:41;4.70;99.90
6174;DHT22;3120;48.796;9.796;2022-11-03T06:52:27;4.70;99.90
6174;DHT22;3120;48.796;9.796;2022-11-03T06:57:36;4.90;99.90
6174;DHT22;3120;48.796;9.796;2022-11-03T07:00:37;5.00;99.90
6174;DHT22;3120;48.796;9.796;2022-11-03T07:03:23;5.10;99.90
6174;DHT22;3120;48.796;9.796;2022-11-03T07:05:49;5.10;99.90
6174;DHT22;3120;48.796;9.796;2022-11-03T07:11:10;5.30;99.90
6174;DHT22;3120;48.796;9.796;2022-11-03T07:13:34;5.40;99.90
6174;DHT22;3120;48.796;9.796;2022-11-03T07:16:00;5.50;99.90
6174;DHT22;3120;48.796;9.796;2022-11-03T07:18:39;5.50;99.90
6174;DHT22;3120;48.796;9.796;2022-11-03T07:21:51;6.60;99.90
6174;DHT22;3120;48.796;9.796;2022-11-03T07:24:26;5.70;99.90
6174;DHT22;3120;48.796;9.796;2022-11-03T07:27:30;5.80;99.90
6174;DHT22;3120;48.796;9.796;2022-11-03T07:30:29;5.90;99.90
6174;DHT22;3120;48.796;9.796;2022-11-03T07:33:00;6.20;99.90
6174;DHT22;3120;48.796;9.796;2022-11-03T07:35:33;7.20;99.90
6174;DHT22;3120;48.796;9.796;2022-11-03T07:38:13;6.80;99.90
6174;DHT22;3120;48.796;9.796;2022-11-03T07:40:40;7.30;99.90
6174;DHT22;3120;48.796;9.796;2022-11-03T07:43:22;8.10;99.90
6174;DHT22;3120;48.796;9.796;2022-11-03T07:45:51;7.50;99.90
6174;DHT22;3120;48.796;9.796;2022-11-03T07:48:41;7.60;99.90
6174;DHT22;3120;48.796;9.796;2022-11-03T07:53:45;7.60;99.90
6174;DHT22;3120;48.796;9.796;2022-11-03T07:56:21;7.60;99.90
6174;DHT22;3120;48.796;9.796;2022-11-03T08:01:53;7.80;99.90
6174;DHT22;3120;48.796;9.796;2022-11-03T08:04:22;8.00;99.90
6174;DHT22;3120;48.796;9.796;2022-11-03T08:06:49;8.40;99.90
6174;DHT22;3120;48.796;9.796;2022-11-03T08:09:14;8.60;99.90
6174;DHT22;3120;48.796;9.796;2022-11-03T08:11:40;8.70;99.90
6174;DHT22;3120;48.796;9.796;2022-11-03T08:14:06;8.90;99.90
6174;DHT22;3120;48.796;9.796;2022-11-03T08:16:33;10.10;99.90
6174;DHT22;3120;48.796;9.796;2022-11-03T08:18:59;9.20;99.90
6174;DHT22;3120;48.796;9.796;2022-11-03T08:21:28;9.10;99.90
6174;DHT22;3120;48.796;9.796;2022-11-03T08:23:53;9.50;99.90
6174;DHT22;3120;48.796;9.796;2022-11-03T08:26:19;9.70;99.90
6174;DHT22;3120;48.796;9.796;2022-11-03T08:28:45;9.80;99.90
6174;DHT22;3120;48.796;9.796;2022-11-03T08:31:11;10.40;99.90
6174;DHT22;3120;48.796;9.796;2022-11-03T08:33:40;11.10;99.90
6174;DHT22;3120;48.796;9.796;2022-11-03T08:36:09;10.90;99.90
6174;DHT22;3120;48.796;9.796;2022-11-03T08:38:35;10.60;99.90
6174;DHT22;3120;48.796;9.796;2022-11-03T08:41:01;10.80;99.90
6174;DHT22;3120;48.796;9.796;2022-11-03T08:43:27;11.60;74.10
6174;DHT22;3120;48.796;9.796;2022-11-03T08:46:20;12.60;90.60
6174;DHT22;3120;48.796;9.796;2022-11-03T08:48:46;11.20;99.90
6174;DHT22;3120;48.796;9.796;2022-11-03T08:51:12;12.50;89.40
6174;DHT22;3120;48.796;9.796;2022-11-03T08:53:39;11.60;48.30
6174;DHT22;3120;48.796;9.796;2022-11-03T08:56:06;11.70;1.00
6174;DHT22;3120;48.796;9.796;2022-11-03T08:58:32;11.90;4.30
6174;DHT22;3120;48.796;9.796;2022-11-03T09:00:58;12.20;1.00
6174;DHT22;3120;48.796;9.796;2022-11-03T09:03:24;12.20;1.00
6174;DHT22;3120;48.796;9.796;2022-11-03T09:05:49;12.40;1.00
6174;DHT22;3120;48.796;9.796;2022-11-03T09:08:15;13.30;1.00
6174;DHT22;3120;48.796;9.796;2022-11-03T09:10:41;13.40;1.00
6174;DHT22;3120;48.796;9.796;2022-11-03T09:13:06;12.90;1.00
6174;DHT22;3120;48.796;9.796;2022-11-03T09:15:32;13.00;1.00
6174;DHT22;3120;48.796;9.796;2022-11-03T09:17:58;13.10;1.00
6174;DHT22;3120;48.796;9.796;2022-11-03T09:20:24;12.50;1.00
6174;DHT22;3120;48.796;9.796;2022-11-03T09:22:50;14.30;1.00
6174;DHT22;3120;48.796;9.796;2022-11-03T09:25:22;13.40;1.00
6174;DHT22;3120;48.796;9.796;2022-11-03T09:28:10;13.50;1.00
6174;DHT22;3120;48.796;9.796;2022-11-03T09:30:36;13.60;99.90
6174;DHT22;3120;48.796;9.796;2022-11-03T09:33:01;13.90;99.90
6174;DHT22;3120;48.796;9.796;2022-11-03T09:35:34;14.40;99.90
6174;DHT22;3120;48.796;9.796;2022-11-03T09:38:00;14.40;1.00
6174;DHT22;3120;48.796;9.796;2022-11-03T09:40:25;14.70;99.90
6174;DHT22;3120;48.796;9.796;2022-11-03T09:42:53;14.00;1.00
6174;DHT22;3120;48.796;9.796;2022-11-03T09:45:20;14.30;99.90
6174;DHT22;3120;48.796;9.796;2022-11-03T09:47:45;14.10;1.00
6174;DHT22;3120;48.796;9.796;2022-11-03T09:50:17;14.20;99.90
6174;DHT22;3120;48.796;9.796;2022-11-03T09:53:02;14.20;1.00
6174;DHT22;3120;48.796;9.796;2022-11-03T09:55:32;14.40;99.90
6174;DHT22;3120;48.796;9.796;2022-11-03T09:58:11;14.50;1.00
6174;DHT22;3120;48.796;9.796;2022-11-03T10:00:38;14.40;1.00
6174;DHT22;3120;48.796;9.796;2022-11-03T10:03:03;14.50;99.90
6174;DHT22;3120;48.796;9.796;2022-11-03T10:05:29;14.70;1.00
6174;DHT22;3120;48.796;9.796;2022-11-03T10:08:07;15.40;99.90
6174;DHT22;3120;48.796;9.796;2022-11-03T10:10:35;14.70;1.00
6174;DHT22;3120;48.796;9.796;2022-11-03T10:13:03;15.40;1.00
6174;DHT22;3120;48.796;9.796;2022-11-03T10:15:33;14.70;99.90
6174;DHT22;3120;48.796;9.796;2022-11-03T10:18:00;15.20;5.00
6174;DHT22;3120;48.796;9.796;2022-11-03T10:20:27;14.60;1.00
6174;DHT22;3120;48.796;9.796;2022-11-03T10:22:53;14.70;99.90
6174;DHT22;3120;48.796;9.796;2022-11-03T10:25:39;15.60;99.90
6174;DHT22;3120;48.796;9.796;2022-11-03T10:28:24;14.50;99.90
6174;DHT22;3120;48.796;9.796;2022-11-03T10:31:17;14.60;99.90
6174;DHT22;3120;48.796;9.796;2022-11-03T10:34:01;14.70;99.90
6174;DHT22;3120;48.796;9.796;2022-11-03T10:36:29;14.80;99.90
6174;DHT22;3120;48.796;9.796;2022-11-03T10:38:55;15.60;99.90
6174;DHT22;3120;48.796;9.796;2022-11-03T10:41:29;14.70;99.90
6174;DHT22;3120;48.796;9.796;2022-11-03T10:46:27;14.80;1.00
6174;DHT22;3120;48.796;9.796;2022-11-03T10:49:13;14.60;1.00
6174;DHT22;3120;48.796;9.796;2022-11-03T10:51:43;14.70;1.00
6174;DHT22;3120;48.796;9.796;2022-11-03T10:54:12;14.90;99.90
6174;DHT22;3120;48.796;9.796;2022-11-03T10:56:42;14.90;99.90
6174;DHT22;3120;48.796;9.796;2022-11-03T11:01:42;15.10;99.90
6174;DHT22;3120;48.796;9.796;2022-11-03T11:04:09;16.10;99.90
6174;DHT22;3120;48.796;9.796;2022-11-03T11:06:34;15.50;99.90
6174;DHT22;3120;48.796;9.796;2022-11-03T11:09:01;15.30;1.00
6174;DHT22;3120;48.796;9.796;2022-11-03T11:11:28;16.30;1.00
6174;DHT22;3120;48.796;9.796;2022-11-03T11:14:31;15.90;99.90
6174;DHT22;3120;48.796;9.796;2022-11-03T11:17:02;14.70;1.00
6174;DHT22;3120;48.796;9.796;2022-11-03T11:19:29;16.40;99.90
6174;DHT22;3120;48.796;9.796;2022-11-03T11:30:03;15.40;1.00
6174;DHT22;3120;48.796;9.796;2022-11-03T11:35:01;16.30;99.90
6174;DHT22;3120;48.796;9.796;2022-11-03T11:39:53;17.90;99.90
6174;DHT22;3120;48.796;9.796;2022-11-03T11:42:19;14.80;99.90
6174;DHT22;3120;48.796;9.796;2022-11-03T11:44:49;15.70;99.90
6174;DHT22;3120;48.796;9.796;2022-11-03T11:47:27;17.60;99.90
6174;DHT22;3120;48.796;9.796;2022-11-03T11:52:56;15.90;17.90
6174;DHT22;3120;48.796;9.796;2022-11-03T11:57:55;18.00;99.90
6174;DHT22;3120;48.796;9.796;2022-11-03T12:00:26;16.10;99.90
6174;DHT22;3120;48.796;9.796;2022-11-03T12:02:56;16.20;50.00
6174;DHT22;3120;48.796;9.796;2022-11-03T12:05:29;16.40;66.40
6174;DHT22;3120;48.796;9.796;2022-11-03T12:07:56;16.00;1.00
6174;DHT22;3120;48.796;9.796;2022-11-03T12:10:27;16.30;38.40
6174;DHT22;3120;48.796;9.796;2022-11-03T12:12:56;16.30;99.90
6174;DHT22;3120;48.796;9.796;2022-11-03T12:15:52;17.30;99.90
6174;DHT22;3120;48.796;9.796;2022-11-03T12:20:54;16.50;99.90
6174;DHT22;3120;48.796;9.796;2022-11-03T12:23:40;16.60;86.70
6174;DHT22;3120;48.796;9.796;2022-11-03T12:28:53;15.60;1.00
6174;DHT22;3120;48.796;9.796;2022-11-03T12:31:19;16.70;99.90
6174;DHT22;3120;48.796;9.796;2022-11-03T12:33:47;16.90;99.90
6174;DHT22;3120;48.796;9.796;2022-11-03T12:36:13;15.90;99.90
6174;DHT22;3120;48.796;9.796;2022-11-03T12:38:38;16.50;99.90
6174;DHT22;3120;48.796;9.796;2022-11-03T12:41:06;16.50;99.90
6174;DHT22;3120;48.796;9.796;2022-11-03T12:43:50;15.50;99.90
6174;DHT22;3120;48.796;9.796;2022-11-03T12:46:17;15.70;99.90
6174;DHT22;3120;48.796;9.796;2022-11-03T12:48:43;15.70;99.90
6174;DHT22;3120;48.796;9.796;2022-11-03T12:51:20;16.50;99.90
6174;DHT22;3120;48.796;9.796;2022-11-03T12:53:48;15.80;1.00
6174;DHT22;3120;48.796;9.796;2022-11-03T12:56:14;15.70;1.00
6174;DHT22;3120;48.796;9.796;2022-11-03T12:58:40;16.00;1.00
6174;DHT22;3120;48.796;9.796;2022-11-03T13:01:08;17.30;1.00
6174;DHT22;3120;48.796;9.796;2022-11-03T13:03:35;15.70;99.90
6174;DHT22;3120;48.796;9.796;2022-11-03T13:06:02;15.70;99.90
6174;DHT22;3120;48.796;9.796;2022-11-03T13:08:30;15.60;1.00
6174;DHT22;3120;48.796;9.796;2022-11-03T13:10:58;16.70;99.90
6174;DHT22;3120;48.796;9.796;2022-11-03T13:13:24;17.50;1.00
6174;DHT22;3120;48.796;9.796;2022-11-03T13:15:51;16.90;1.00
6174;DHT22;3120;48.796;9.796;2022-11-03T13:18:20;15.60;99.90
6174;DHT22;3120;48.796;9.796;2022-11-03T13:20:56;17.10;99.90
6174;DHT22;3120;48.796;9.796;2022-11-03T13:23:26;17.40;1.00
6174;DHT22;3120;48.796;9.796;2022-11-03T13:25:52;17.40;99.90
6174;DHT22;3120;48.796;9.796;2022-11-03T13:28:17;16.90;1.00
6174;DHT22;3120;48.796;9.796;2022-11-03T13:30:43;15.50;1.00
6174;DHT22;3120;48.796;9.796;2022-11-03T13:33:08;17.10;1.00
6174;DHT22;3120;48.796;9.796;2022-11-03T13:35:34;16.20;99.90
6174;DHT22;3120;48.796;9.796;2022-11-03T13:38:01;15.50;99.90
6174;DHT22;3120;48.796;9.796;2022-11-03T13:40:26;15.50;1.00
6174;DHT22;3120;48.796;9.796;2022-11-03T13:42:52;16.30;99.90
6174;DHT22;3120;48.796;9.796;2022-11-03T13:45:18;15.50;19.10
6174;DHT22;3120;48.796;9.796;2022-11-03T13:47:44;16.00;1.00
6174;DHT22;3120;48.796;9.796;2022-11-03T13:50:09;16.20;99.90
6174;DHT22;3120;48.796;9.796;2022-11-03T13:52:35;16.40;99.90
6174;DHT22;3120;48.796;9.796;2022-11-03T13:55:00;15.90;1.00
6174;DHT22;3120;48.796;9.796;2022-11-03T13:57:26;15.30;1.00
6174;DHT22;3120;48.796;9.796;2022-11-03T13:59:59;15.40;1.00
6174;DHT22;3120;48.796;9.796;2022-11-03T14:02:25;15.20;1.00
6174;DHT22;3120;48.796;9.796;2022-11-03T14:04:54;15.10;1.00
6174;DHT22;3120;48.796;9.796;2022-11-03T14:07:22;15.60;99.90
6174;DHT22;3120;48.796;9.796;2022-11-03T14:09:52;16.20;1.00
6174;DHT22;3120;48.796;9.796;2022-11-03T14:12:17;16.10;30.70
6174;DHT22;3120;48.796;9.796;2022-11-03T14:15:08;15.80;1.00
6174;DHT22;3120;48.796;9.796;2022-11-03T14:17:34;14.60;99.90
6174;DHT22;3120;48.796;9.796;2022-11-03T14:20:00;14.80;99.90
6174;DHT22;3120;48.796;9.796;2022-11-03T14:22:31;15.30;1.00
6174;DHT22;3120;48.796;9.796;2022-11-03T14:24:57;14.40;99.90
6174;DHT22;3120;48.796;9.796;2022-11-03T14:27:23;14.40;99.90
6174;DHT22;3120;48.796;9.796;2022-11-03T14:29:50;14.40;99.90
6174;DHT22;3120;48.796;9.796;2022-11-03T14:32:17;15.50;99.90
6174;DHT22;3120;48.796;9.796;2022-11-03T14:34:43;14.40;1.00
6174;DHT22;3120;48.796;9.796;2022-11-03T14:37:09;16.00;1.00
6174;DHT22;3120;48.796;9.796;2022-11-03T14:39:35;14.30;99.90
6174;DHT22;3120;48.796;9.796;2022-11-03T14:42:04;14.80;1.00
6174;DHT22;3120;48.796;9.796;2022-11-03T14:44:35;14.30;36.80
6174;DHT22;3120;48.796;9.796;2022-11-03T14:47:08;14.60;78.30
6174;DHT22;3120;48.796;9.796;2022-11-03T14:49:34;14.20;1.00
6174;DHT22;3120;48.796;9.796;2022-11-03T14:52:01;15.90;1.00
6174;DHT22;3120;48.796;9.796;2022-11-03T14:54:28;15.60;99.90
6174;DHT22;3120;48.796;9.796;2022-11-03T14:56:54;15.90;1.00
6174;DHT22;3120;48.796;9.796;2022-11-03T14:59:20;15.70;1.00
6174;DHT22;3120;48.796;9.796;2022-11-03T15:01:48;15.50;1.00
6174;DHT22;3120;48.796;9.796;2022-11-03T15:04:15;13.90;1.00
6174;DHT22;3120;48.796;9.796;2022-11-03T15:06:42;15.40;1.00
6174;DHT22;3120;48.796;9.796;2022-11-03T15:09:08;15.30;99.90
6174;DHT22;3120;48.796;9.796;2022-11-03T15:11:37;13.70;99.90
6174;DHT22;3120;48.796;9.796;2022-11-03T15:14:02;14.70;99.90
6174;DHT22;3120;48.796;9.796;2022-11-03T15:16:28;15.00;1.00
6174;DHT22;3120;48.796;9.796;2022-11-03T15:18:54;14.60;1.00
6174;DHT22;3120;48.796;9.796;2022-11-03T15:21:20;14.10;1.00
6174;DHT22;3120;48.796;9.796;2022-11-03T15:23:45;14.20;99.90
6174;DHT22;3120;48.796;9.796;2022-11-03T15:26:11;13.50;99.90
6174;DHT22;3120;48.796;9.796;2022-11-03T15:28:37;13.50;1.00
6174;DHT22;3120;48.796;9.796;2022-11-03T15:31:03;13.60;1.00
6174;DHT22;3120;48.796;9.796;2022-11-03T15:33:30;13.60;1.00
6174;DHT22;3120;48.796;9.796;2022-11-03T15:36:00;14.10;1.00
6174;DHT22;3120;48.796;9.796;2022-11-03T15:38:29;13.60;35.30
6174;DHT22;3120;48.796;9.796;2022-11-03T15:40:54;14.40;1.00
6174;DHT22;3120;48.796;9.796;2022-11-03T15:43:42;13.40;27.80
6174;DHT22;3120;48.796;9.796;2022-11-03T15:46:08;13.30;99.90
6174;DHT22;3120;48.796;9.796;2022-11-03T15:48:35;13.30;1.00
6174;DHT22;3120;48.796;9.796;2022-11-03T15:51:02;13.10;82.40
6174;DHT22;3120;48.796;9.796;2022-11-03T15:53:28;13.00;1.00
6174;DHT22;3120;48.796;9.796;2022-11-03T15:55:54;15.00;1.00
6174;DHT22;3120;48.796;9.796;2022-11-03T15:58:19;12.90;1.00
6174;DHT22;3120;48.796;9.796;2022-11-03T16:00:45;14.60;99.90
6174;DHT22;3120;48.796;9.796;2022-11-03T16:03:10;12.90;1.00
6174;DHT22;3120;48.796;9.796;2022-11-03T16:05:36;12.80;1.00
6174;DHT22;3120;48.796;9.796;2022-11-03T16:08:02;12.70;99.90
6174;DHT22;3120;48.796;9.796;2022-11-03T16:10:27;12.70;99.90
6174;DHT22;3120;48.796;9.796;2022-11-03T16:12:53;14.00;1.00
6174;DHT22;3120;48.796;9.796;2022-11-03T16:15:18;12.70;1.00
6174;DHT22;3120;48.796;9.796;2022-11-03T16:17:44;14.30;1.00
6174;DHT22;3120;48.796;9.796;2022-11-03T16:20:10;13.40;99.90
6174;DHT22;3120;48.796;9.796;2022-11-03T16:22:35;12.50;99.90
6174;DHT22;3120;48.796;9.796;2022-11-03T16:25:03;13.70;99.90
6174;DHT22;3120;48.796;9.796;2022-11-03T16:27:28;12.50;99.90
6174;DHT22;3120;48.796;9.796;2022-11-03T16:29:54;14.50;1.00
6174;DHT22;3120;48.796;9.796;2022-11-03T16:32:23;13.60;99.90
6174;DHT22;3120;48.796;9.796;2022-11-03T16:34:49;12.80;1.00
6174;DHT22;3120;48.796;9.796;2022-11-03T16:37:16;13.40;99.90
6174;DHT22;3120;48.796;9.796;2022-11-03T16:39:43;14.40;1.00
6174;DHT22;3120;48.796;9.796;2022-11-03T16:42:09;14.60;99.90
6174;DHT22;3120;48.796;9.796;2022-11-03T16:44:34;12.70;1.00
6174;DHT22;3120;48.796;9.796;2022-11-03T16:47:02;13.00;1.00
6174;DHT22;3120;48.796;9.796;2022-11-03T16:49:30;14.50;99.90
6174;DHT22;3120;48.796;9.796;2022-11-03T16:51:56;12.80;9.00
6174;DHT22;3120;48.796;9.796;2022-11-03T16:54:23;14.80;99.90
6174;DHT22;3120;48.796;9.796;2022-11-03T16:56:51;12.70;1.00
6174;DHT22;3120;48.796;9.796;2022-11-03T16:59:17;12.70;72.40
6174;DHT22;3120;48.796;9.796;2022-11-03T17:01:43;14.90;99.90
6174;DHT22;3120;48.796;9.796;2022-11-03T17:04:09;14.20;99.90
6174;DHT22;3120;48.796;9.796;2022-11-03T17:06:34;12.70;1.00
6174;DHT22;3120;48.796;9.796;2022-11-03T17:09:00;12.30;1.00
6174;DHT22;3120;48.796;9.796;2022-11-03T17:11:29;12.70;1.00
6174;DHT22;3120;48.796;9.796;2022-11-03T17:14:04;13.50;99.90
6174;DHT22;3120;48.796;9.796;2022-11-03T17:16:30;14.10;1.00
6174;DHT22;3120;48.796;9.796;2022-11-03T17:18:56;13.40;1.00
6174;DHT22;3120;48.796;9.796;2022-11-03T17:21:23;12.50;99.90
6174;DHT22;3120;48.796;9.796;2022-11-03T17:23:53;12.90;99.90
6174;DHT22;3120;48.796;9.796;2022-11-03T17:26:23;13.00;99.90
6174;DHT22;3120;48.796;9.796;2022-11-03T17:28:54;12.40;99.90
6174;DHT22;3120;48.796;9.796;2022-11-03T17:31:21;13.50;99.90
6174;DHT22;3120;48.796;9.796;2022-11-03T17:33:47;13.70;1.00
6174;DHT22;3120;48.796;9.796;2022-11-03T17:36:13;14.50;1.00
6174;DHT22;3120;48.796;9.796;2022-11-03T17:38:38;14.40;1.00
6174;DHT22;3120;48.796;9.796;2022-11-03T17:41:04;12.40;1.00
6174;DHT22;3120;48.796;9.796;2022-11-03T17:43:30;12.20;1.00
6174;DHT22;3120;48.796;9.796;2022-11-03T17:45:57;12.10;1.00
6174;DHT22;3120;48.796;9.796;2022-11-03T17:48:29;13.40;1.00